createdAt,value
2023-03-26T00:00:19.452Z,98326.41
2023-03-26T00:01:30.033Z,98329.19
2023-03-26T00:02:41.293Z,98323.88
2023-03-26T00:03:56.587Z,98339.34
2023-03-26T00:05:02.885Z,98335.41
2023-03-26T00:06:10.768Z,98335.16
2023-03-26T00:07:15.461Z,98338.75
2023-03-26T00:08:19.136Z,98336.50
2023-03-26T00:09:23.411Z,98334.25
2023-03-26T00:10:27.815Z,98336.75
2023-03-26T00:11:31.922Z,98344.84
2023-03-26T00:12:39.481Z,98342.91
2023-03-26T00:13:45.135Z,98344.63
2023-03-26T00:14:48.882Z,98344.63
2023-03-26T00:15:53.423Z,98337.59
2023-03-26T00:16:58.125Z,98337.88
2023-03-26T00:18:02.824Z,98339.53
2023-03-26T00:19:06.766Z,98343.19
2023-03-26T00:20:11.300Z,98332.28
2023-03-26T00:21:20.935Z,98329.53
2023-03-26T00:22:24.927Z,98326.13
2023-03-26T00:23:31.272Z,98331.06
2023-03-26T00:24:37.646Z,98324.22
2023-03-26T00:25:44.629Z,98326.72
2023-03-26T00:27:01.622Z,98323.38
2023-03-26T00:28:08.234Z,98317.78
2023-03-26T00:29:14.046Z,98319.22
2023-03-26T00:30:29.971Z,98319.59
2023-03-26T00:31:35.868Z,98315.97
2023-03-26T00:32:39.841Z,98321.28
2023-03-26T00:33:45.427Z,98318.34
2023-03-26T00:35:08.880Z,98324.25
2023-03-26T00:36:17.760Z,98324.97
2023-03-26T00:37:26.885Z,98326.91
2023-03-26T00:38:33.823Z,98323.44
2023-03-26T00:39:39.549Z,98318.34
2023-03-26T00:40:48.216Z,98325.25
2023-03-26T00:41:54.870Z,98325.63
2023-03-26T00:43:18.998Z,98308.84
2023-03-26T00:44:23.696Z,98315.84
2023-03-26T00:45:30.501Z,98311.97
2023-03-26T00:46:37.559Z,98310.81
2023-03-26T00:47:46.765Z,98321.28
2023-03-26T00:48:50.955Z,98310.81
2023-03-26T00:49:56.206Z,98306.06
2023-03-26T00:51:01.937Z,98311.00
2023-03-26T00:52:09.075Z,98304.00
2023-03-26T00:53:15.360Z,98309.56
2023-03-26T00:54:19.548Z,98304.66
2023-03-26T00:55:23.556Z,98303.81
2023-03-26T00:56:27.443Z,98304.06
2023-03-26T00:57:35.990Z,98307.97
2023-03-26T00:58:40.895Z,98310.09
2023-03-26T00:59:44.605Z,98304.66
2023-03-26T01:00:59.074Z,98308.00
2023-03-26T01:02:04.416Z,98305.34
2023-03-26T01:03:26.670Z,98300.88
2023-03-26T01:05:04.361Z,98299.72
2023-03-26T01:06:22.417Z,98307.69
2023-03-26T01:07:29.135Z,98299.72
2023-03-26T01:08:45.363Z,98301.41
2023-03-26T01:09:58.554Z,98294.41
2023-03-26T01:11:18.296Z,98300.19
2023-03-26T01:12:26.963Z,98304.25
2023-03-26T01:13:37.305Z,98304.13
2023-03-26T01:14:41.896Z,98307.63
2023-03-26T01:15:51.216Z,98311.66
2023-03-26T01:17:03.069Z,98312.09
2023-03-26T01:18:14.818Z,98312.34
2023-03-26T01:20:16.072Z,98307.69
2023-03-26T01:21:30.363Z,98306.00
2023-03-26T01:22:37.858Z,98307.69
2023-03-26T01:23:57.685Z,98306.47
2023-03-26T01:25:01.856Z,98312.75
2023-03-26T01:26:58.259Z,98310.81
2023-03-26T01:28:04.012Z,98310.09
2023-03-26T01:29:49.059Z,98314.75
2023-03-26T01:31:11.747Z,98309.56
2023-03-26T01:33:16.356Z,98317.94
2023-03-26T01:35:03.019Z,98320.72
2023-03-26T01:36:17.319Z,98318.91
2023-03-26T01:37:28.392Z,98310.63
2023-03-26T01:39:06.680Z,98314.34
2023-03-26T01:40:43.156Z,98314.88
2023-03-26T01:41:58.620Z,98316.25
2023-03-26T01:43:19.882Z,98312.63
2023-03-26T01:44:34.739Z,98319.56
2023-03-26T01:45:44.888Z,98305.94
2023-03-26T01:46:51.257Z,98307.63
2023-03-26T01:47:56.856Z,98307.50
2023-03-26T01:49:02.477Z,98300.88
2023-03-26T01:50:15.937Z,98289.56
2023-03-26T01:51:36.075Z,98300.19
2023-03-26T01:52:41.350Z,98289.44
2023-03-26T01:53:48.802Z,98292.28
2023-03-26T01:54:58.063Z,98300.13
2023-03-26T01:56:38.173Z,98300.44
2023-03-26T01:58:21.683Z,98294.94
2023-03-26T02:00:03.300Z,98298.53
2023-03-26T02:02:09.494Z,98292.28
2023-03-26T02:03:28.845Z,98290.78
2023-03-26T02:04:57.912Z,98294.53
2023-03-26T02:06:26.581Z,98292.28
2023-03-26T02:07:56.243Z,98289.88
2023-03-26T02:09:09.417Z,98287.03
2023-03-26T02:10:37.043Z,98280.25
2023-03-26T02:11:41.938Z,98287.81
2023-03-26T02:12:46.413Z,98291.31
2023-03-26T02:13:52.455Z,98289.09
2023-03-26T02:14:59.058Z,98283.78
2023-03-26T02:16:08.069Z,98286.44
2023-03-26T02:17:12.406Z,98286.34
2023-03-26T02:18:16.294Z,98285.38
2023-03-26T02:19:30.960Z,98292.03
2023-03-26T02:20:37.737Z,98288.41
2023-03-26T02:21:46.207Z,98288.06
2023-03-26T02:22:50.474Z,98280.25
2023-03-26T02:24:03.034Z,98281.34
2023-03-26T02:25:18.339Z,98282.06
2023-03-26T02:26:33.879Z,98279.97
2023-03-26T02:27:39.668Z,98274.94
2023-03-26T02:28:43.669Z,98276.59
2023-03-26T02:29:47.953Z,98268.53
2023-03-26T02:30:57.867Z,98272.28
2023-03-26T02:32:07.214Z,98277.84
2023-03-26T02:33:19.128Z,98278.56
2023-03-26T02:34:23.284Z,98277.59
2023-03-26T02:35:33.274Z,98278.28
2023-03-26T02:36:44.566Z,98276.38
2023-03-26T02:37:55.281Z,98283.22
2023-03-26T02:39:00.407Z,98275.25
2023-03-26T02:40:11.989Z,98277.78
2023-03-26T02:41:16.115Z,98278.06
2023-03-26T02:42:21.699Z,98279.72
2023-03-26T02:43:25.771Z,98282.25
2023-03-26T02:44:30.002Z,98281.13
2023-03-26T02:45:34.300Z,98281.13
2023-03-26T02:46:38.536Z,98281.75
2023-03-26T02:47:51.010Z,98281.47
2023-03-26T02:48:54.876Z,98280.91
2023-03-26T02:50:01.612Z,98286.22
2023-03-26T02:51:14.715Z,98286.22
2023-03-26T02:52:19.006Z,98282.59
2023-03-26T02:53:24.356Z,98294.88
2023-03-26T02:54:28.811Z,98283.56
2023-03-26T02:55:32.654Z,98292.34
2023-03-26T02:56:39.115Z,98285.22
2023-03-26T02:57:46.990Z,98288.13
2023-03-26T02:58:51.494Z,98292.22
2023-03-26T03:00:13.545Z,98287.88
2023-03-26T03:01:22.214Z,98289.94
2023-03-26T03:02:29.551Z,98283.94
2023-03-26T03:03:34.776Z,98283.56
2023-03-26T03:04:38.600Z,98284.41
2023-03-26T03:05:43.419Z,98281.47
2023-03-26T03:06:47.349Z,98278.69
2023-03-26T03:07:51.448Z,98281.81
2023-03-26T03:08:55.953Z,98288.78
2023-03-26T03:10:04.331Z,98291.56
2023-03-26T03:11:24.880Z,98284.91
2023-03-26T03:12:28.910Z,98283.25
2023-03-26T03:13:32.769Z,98285.16
2023-03-26T03:14:42.946Z,98283.47
2023-03-26T03:15:47.792Z,98272.44
2023-03-26T03:16:57.955Z,98280.13
2023-03-26T03:18:02.499Z,98281.09
2023-03-26T03:19:10.087Z,98286.13
2023-03-26T03:20:14.449Z,98279.84
2023-03-26T03:21:18.210Z,98281.44
2023-03-26T03:22:28.738Z,98278.50
2023-03-26T03:23:32.815Z,98275.84
2023-03-26T03:24:36.737Z,98281.75
2023-03-26T03:25:41.378Z,98278.97
2023-03-26T03:27:00.124Z,98271.84
2023-03-26T03:28:15.400Z,98273.78
2023-03-26T03:29:25.060Z,98280.78
2023-03-26T03:30:44.893Z,98280.34
2023-03-26T03:31:55.730Z,98288.22
2023-03-26T03:33:03.869Z,98274.09
2023-03-26T03:34:19.404Z,98278.56
2023-03-26T03:35:23.489Z,98281.94
2023-03-26T03:37:01.414Z,98276.63
2023-03-26T03:38:06.990Z,98282.63
2023-03-26T03:39:16.017Z,98283.63
2023-03-26T03:40:20.571Z,98283.22
2023-03-26T03:41:24.621Z,98281.97
2023-03-26T03:42:28.446Z,98283.56
2023-03-26T03:43:32.955Z,98281.84
2023-03-26T03:44:40.028Z,98287.03
2023-03-26T03:45:45.689Z,98286.22
2023-03-26T03:46:54.053Z,98292.34
2023-03-26T03:47:58.685Z,98289.69
2023-03-26T03:49:03.630Z,98293.75
2023-03-26T03:50:16.605Z,98291.25
2023-03-26T03:51:21.102Z,98294.03
2023-03-26T03:52:24.997Z,98294.78
2023-03-26T03:53:29.110Z,98288.66
2023-03-26T03:54:33.485Z,98291.31
2023-03-26T03:55:38.357Z,98292.28
2023-03-26T03:56:42.706Z,98292.03
2023-03-26T03:57:46.890Z,98303.22
2023-03-26T03:58:51.881Z,98300.44
2023-03-26T03:59:58.573Z,98299.34
2023-03-26T04:01:04.487Z,98296.44
2023-03-26T04:02:13.629Z,98291.38
2023-03-26T04:03:19.878Z,98288.03
2023-03-26T04:04:38.390Z,98289.56
2023-03-26T04:05:44.145Z,98289.19
2023-03-26T04:06:47.817Z,98283.88
2023-03-26T04:07:51.732Z,98277.97
2023-03-26T04:08:58.498Z,98282.06
2023-03-26T04:10:17.717Z,98281.34
2023-03-26T04:11:21.746Z,98274.63
2023-03-26T04:12:30.004Z,98286.22
2023-03-26T04:13:37.483Z,98280.78
2023-03-26T04:14:41.730Z,98287.75
2023-03-26T04:15:45.633Z,98285.81
2023-03-26T04:16:49.759Z,98285.94
2023-03-26T04:17:54.010Z,98275.19
2023-03-26T04:18:58.356Z,98275.94
2023-03-26T04:20:13.982Z,98279.41
2023-03-26T04:21:17.865Z,98280.50
2023-03-26T04:22:23.609Z,98271.00
2023-03-26T04:23:29.160Z,98274.22
2023-03-26T04:24:42.428Z,98274.09
2023-03-26T04:25:53.973Z,98271.31
2023-03-26T04:27:01.196Z,98269.38
2023-03-26T04:28:20.141Z,98274.53
2023-03-26T04:29:28.011Z,98266.00
2023-03-26T04:30:31.997Z,98267.41
2023-03-26T04:31:36.447Z,98261.53
2023-03-26T04:32:40.780Z,98262.94
2023-03-26T04:33:48.751Z,98259.59
2023-03-26T04:34:53.793Z,98253.19
2023-03-26T04:36:02.836Z,98252.06
2023-03-26T04:37:32.463Z,98256.78
2023-03-26T04:38:43.574Z,98251.47
2023-03-26T04:39:47.620Z,98255.72
2023-03-26T04:40:52.158Z,98255.56
2023-03-26T04:41:57.961Z,98253.75
2023-03-26T04:43:03.789Z,98247.59
2023-03-26T04:44:14.411Z,98249.28
2023-03-26T04:45:23.058Z,98249.28
2023-03-26T04:46:26.979Z,98250.97
2023-03-26T04:47:30.949Z,98253.63
2023-03-26T04:48:34.968Z,98257.25
2023-03-26T04:49:39.176Z,98255.56
2023-03-26T04:50:45.507Z,98250.97
2023-03-26T04:51:49.567Z,98248.16
2023-03-26T04:53:02.526Z,98253.63
2023-03-26T04:54:16.788Z,98250.31
2023-03-26T04:55:42.228Z,98246.84
2023-03-26T04:57:00.353Z,98247.56
2023-03-26T04:58:07.385Z,98252.13
2023-03-26T04:59:33.396Z,98252.03
2023-03-26T05:00:37.873Z,98249.50
2023-03-26T05:01:46.199Z,98257.59
2023-03-26T05:02:50.769Z,98249.16
2023-03-26T05:03:57.421Z,98255.91
2023-03-26T05:05:03.171Z,98254.78
2023-03-26T05:06:17.981Z,98250.78
2023-03-26T05:07:24.653Z,98252.72
2023-03-26T05:08:29.771Z,98255.94
2023-03-26T05:09:33.566Z,98254.03
2023-03-26T05:10:42.279Z,98253.91
2023-03-26T05:11:48.723Z,98255.84
2023-03-26T05:12:52.981Z,98265.22
2023-03-26T05:13:57.981Z,98257.09
2023-03-26T05:15:03.619Z,98263.25
2023-03-26T05:16:14.861Z,98261.34
2023-03-26T05:17:27.626Z,98255.06
2023-03-26T05:18:32.646Z,98253.94
2023-03-26T05:19:37.670Z,98259.09
2023-03-26T05:20:42.426Z,98249.31
2023-03-26T05:21:46.594Z,98253.53
2023-03-26T05:22:51.116Z,98258.25
2023-03-26T05:23:55.024Z,98252.56
2023-03-26T05:24:58.998Z,98251.03
2023-03-26T05:26:03.133Z,98251.44
2023-03-26T05:27:20.256Z,98251.06
2023-03-26T05:28:25.616Z,98251.34
2023-03-26T05:29:29.392Z,98247.16
2023-03-26T05:30:33.410Z,98245.91
2023-03-26T05:31:37.991Z,98247.47
2023-03-26T05:32:44.009Z,98250.94
2023-03-26T05:33:48.983Z,98250.72
2023-03-26T05:34:52.793Z,98256.72
2023-03-26T05:36:03.710Z,98253.09
2023-03-26T05:37:17.945Z,98252.97
2023-03-26T05:38:21.753Z,98249.88
2023-03-26T05:39:27.063Z,98257.84
2023-03-26T05:40:31.203Z,98253.38
2023-03-26T05:41:35.698Z,98246.38
2023-03-26T05:42:40.682Z,98249.16
2023-03-26T05:43:49.145Z,98251.69
2023-03-26T05:44:52.862Z,98249.88
2023-03-26T05:45:58.918Z,98248.88
2023-03-26T05:47:08.941Z,98252.66
2023-03-26T05:48:15.895Z,98258.09
2023-03-26T05:49:19.636Z,98254.47
2023-03-26T05:50:24.806Z,98251.81
2023-03-26T05:51:28.409Z,98246.38
2023-03-26T05:52:35.025Z,98253.06
2023-03-26T05:53:39.093Z,98250.09
2023-03-26T05:54:43.768Z,98247.88
2023-03-26T05:55:58.111Z,98249.41
2023-03-26T05:57:02.856Z,98255.44
2023-03-26T05:58:14.356Z,98248.31
2023-03-26T05:59:19.150Z,98250.00
2023-03-26T06:00:24.340Z,98257.69
2023-03-26T06:01:29.442Z,98249.44
2023-03-26T06:02:34.050Z,98250.56
2023-03-26T06:03:40.226Z,98250.84
2023-03-26T06:04:46.070Z,98256.28
2023-03-26T06:05:50.351Z,98258.09
2023-03-26T06:06:54.386Z,98257.00
2023-03-26T06:07:58.076Z,98254.19
2023-03-26T06:09:03.044Z,98257.25
2023-03-26T06:10:20.588Z,98253.59
2023-03-26T06:11:24.932Z,98252.19
2023-03-26T06:12:28.674Z,98261.56
2023-03-26T06:13:32.458Z,98257.78
2023-03-26T06:14:43.065Z,98258.88
2023-03-26T06:15:47.010Z,98263.50
2023-03-26T06:16:50.688Z,98260.00
2023-03-26T06:17:54.396Z,98256.66
2023-03-26T06:18:58.811Z,98257.34
2023-03-26T06:20:12.284Z,98258.19
2023-03-26T06:21:19.040Z,98259.16
2023-03-26T06:22:23.706Z,98252.75
2023-03-26T06:23:28.029Z,98260.31
2023-03-26T06:24:33.648Z,98255.84
2023-03-26T06:25:38.348Z,98258.38
2023-03-26T06:26:43.008Z,98256.56
2023-03-26T06:27:46.757Z,98257.25
2023-03-26T06:28:50.518Z,98264.81
2023-03-26T06:29:54.830Z,98259.78
2023-03-26T06:31:01.812Z,98264.25
2023-03-26T06:32:20.057Z,98259.78
2023-03-26T06:33:26.092Z,98262.31
2023-03-26T06:34:29.974Z,98262.44
2023-03-26T06:35:33.633Z,98261.47
2023-03-26T06:36:37.732Z,98261.88
2023-03-26T06:37:42.436Z,98260.34
2023-03-26T06:38:46.093Z,98260.34
2023-03-26T06:39:49.878Z,98265.38
2023-03-26T06:40:53.949Z,98264.81
2023-03-26T06:41:57.927Z,98263.72
2023-03-26T06:43:08.874Z,98261.78
2023-03-26T06:44:14.488Z,98268.50
2023-03-26T06:45:19.079Z,98258.56
2023-03-26T06:46:23.753Z,98254.66
2023-03-26T06:47:27.681Z,98262.34
2023-03-26T06:48:32.556Z,98258.03
2023-03-26T06:49:38.472Z,98263.09
2023-03-26T06:50:45.436Z,98258.19
2023-03-26T06:51:49.181Z,98265.63
2023-03-26T06:53:00.428Z,98264.78
2023-03-26T06:54:07.147Z,98269.00
2023-03-26T06:55:15.623Z,98265.22
2023-03-26T06:56:19.707Z,98261.16
2023-03-26T06:57:23.714Z,98257.09
2023-03-26T06:58:27.547Z,98257.50
2023-03-26T06:59:32.120Z,98263.66
2023-03-26T07:00:39.347Z,98261.00
2023-03-26T07:01:47.514Z,98264.47
2023-03-26T07:02:51.376Z,98262.41
2023-03-26T07:03:55.572Z,98261.28
2023-03-26T07:05:04.381Z,98260.75
2023-03-26T07:06:13.313Z,98259.22
2023-03-26T07:07:18.603Z,98264.09
2023-03-26T07:08:25.090Z,98252.22
2023-03-26T07:09:33.853Z,98259.66
2023-03-26T07:10:38.101Z,98251.41
2023-03-26T07:11:41.825Z,98259.84
2023-03-26T07:12:46.324Z,98256.66
2023-03-26T07:13:50.535Z,98256.94
2023-03-26T07:14:54.516Z,98260.28
2023-03-26T07:15:59.224Z,98260.69
2023-03-26T07:17:03.676Z,98262.25
2023-03-26T07:18:20.046Z,98266.44
2023-03-26T07:19:24.244Z,98264.22
2023-03-26T07:20:28.409Z,98260.28
2023-03-26T07:21:32.778Z,98258.22
2023-03-26T07:22:39.912Z,98254.84
2023-03-26T07:23:44.610Z,98253.72
2023-03-26T07:24:49.487Z,98259.03
2023-03-26T07:25:54.218Z,98254.56
2023-03-26T07:27:31.933Z,98255.81
2023-03-26T07:29:03.776Z,98254.69
2023-03-26T07:30:49.466Z,98266.19
2023-03-26T07:32:12.362Z,98255.13
2023-03-26T07:33:42.798Z,98260.72
2023-03-26T07:35:02.136Z,98252.16
2023-03-26T07:36:33.799Z,98248.63
2023-03-26T07:38:44.298Z,98241.22
2023-03-26T07:40:28.662Z,98234.81
2023-03-26T07:41:57.219Z,98231.13
2023-03-26T07:43:54.950Z,98239.94
2023-03-26T07:45:14.080Z,98233.00
2023-03-26T07:46:31.972Z,98226.38
2023-03-26T07:47:37.463Z,98225.56
2023-03-26T07:48:50.203Z,98222.34
2023-03-26T07:49:58.020Z,98211.31
2023-03-26T07:51:03.618Z,98207.50
2023-03-26T07:52:16.292Z,98212.69
2023-03-26T07:53:21.464Z,98220.78
2023-03-26T07:54:25.713Z,98224.56
2023-03-26T07:55:31.611Z,98221.88
2023-03-26T07:57:02.177Z,98218.78
2023-03-26T07:58:15.519Z,98228.66
2023-03-26T07:59:51.569Z,98213.88
2023-03-26T08:01:26.525Z,98209.84
2023-03-26T08:02:58.048Z,98225.16
2023-03-26T08:04:24.903Z,98205.75
2023-03-26T08:06:14.762Z,98211.69
2023-03-26T08:07:37.822Z,98209.16
2023-03-26T08:09:12.072Z,98210.19
2023-03-26T08:10:29.530Z,98205.09
2023-03-26T08:12:13.436Z,98212.72
2023-03-26T08:13:35.348Z,98208.88
2023-03-26T08:15:12.974Z,98216.38
2023-03-26T08:16:36.968Z,98205.44
2023-03-26T08:18:38.975Z,98204.88
2023-03-26T08:20:33.187Z,98212.13
2023-03-26T08:22:26.705Z,98198.66
2023-03-26T08:23:50.860Z,98209.28
2023-03-26T08:25:34.429Z,98211.31
2023-03-26T08:27:03.047Z,98208.16
2023-03-26T08:29:02.361Z,98215.19
2023-03-26T08:30:16.299Z,98200.59
2023-03-26T08:31:33.577Z,98216.56
2023-03-26T08:32:37.996Z,98215.75
2023-03-26T08:33:42.588Z,98207.22
2023-03-26T08:34:57.849Z,98217.91
2023-03-26T08:36:01.488Z,98218.69
2023-03-26T08:37:07.591Z,98216.66
2023-03-26T08:38:16.024Z,98213.53
2023-03-26T08:39:22.403Z,98220.53
2023-03-26T08:41:03.013Z,98219.22
2023-03-26T08:42:57.479Z,98209.34
2023-03-26T08:44:57.375Z,98210.53
2023-03-26T08:46:30.621Z,98204.50
2023-03-26T08:48:19.911Z,98215.47
2023-03-26T08:49:55.859Z,98216.78
2023-03-26T08:51:29.907Z,98216.97
2023-03-26T08:53:24.822Z,98223.94
2023-03-26T08:54:49.927Z,98222.53
2023-03-26T08:56:42.644Z,98224.13
2023-03-26T08:58:36.235Z,98222.06
2023-03-26T09:00:17.607Z,98213.13
2023-03-26T09:02:14.487Z,98226.25
2023-03-26T09:03:58.866Z,98217.94
2023-03-26T09:05:47.503Z,98207.81
2023-03-26T09:07:25.579Z,98196.09
2023-03-26T09:09:19.135Z,98209.56
2023-03-26T09:10:35.826Z,98200.00
2023-03-26T09:12:02.011Z,98200.72
2023-03-26T09:13:39.840Z,98181.91
2023-03-26T09:14:58.408Z,98195.91
2023-03-26T09:16:26.608Z,98194.97
2023-03-26T09:18:17.073Z,98193.59
2023-03-26T09:19:58.447Z,98202.59
2023-03-26T09:21:28.944Z,98186.06
2023-03-26T09:23:25.465Z,98176.06
2023-03-26T09:24:57.404Z,98190.09
2023-03-26T09:26:11.751Z,98198.44
2023-03-26T09:27:39.480Z,98187.06
2023-03-26T09:29:20.676Z,98192.97
2023-03-26T09:30:57.472Z,98211.91
2023-03-26T09:32:34.893Z,98197.53
2023-03-26T09:34:55.020Z,98204.56
2023-03-26T09:36:01.895Z,98202.53
2023-03-26T09:38:01.512Z,98204.19
2023-03-26T09:39:41.745Z,98209.16
2023-03-26T09:41:44.131Z,98191.66
2023-03-26T09:43:29.061Z,98192.94
2023-03-26T09:44:47.919Z,98200.78
2023-03-26T09:46:17.681Z,98187.22
2023-03-26T09:47:58.467Z,98195.25
2023-03-26T09:49:44.880Z,98189.59
2023-03-26T09:51:16.996Z,98187.22
2023-03-26T09:53:10.574Z,98194.06
2023-03-26T09:54:28.796Z,98193.19
2023-03-26T09:56:00.578Z,98193.13
2023-03-26T09:57:25.110Z,98193.94
2023-03-26T09:59:13.704Z,98184.38
2023-03-26T10:00:29.244Z,98191.63
2023-03-26T10:02:11.794Z,98178.28
2023-03-26T10:03:28.358Z,98185.25
2023-03-26T10:04:47.285Z,98181.91
2023-03-26T10:06:17.395Z,98184.91
2023-03-26T10:07:36.787Z,98187.03
2023-03-26T10:08:51.615Z,98188.19
2023-03-26T10:10:20.738Z,98194.84
2023-03-26T10:11:55.205Z,98191.94
2023-03-26T10:13:26.297Z,98183.84
2023-03-26T10:14:53.679Z,98177.66
2023-03-26T10:16:33.172Z,98171.81
2023-03-26T10:18:27.342Z,98183.84
2023-03-26T10:19:53.276Z,98181.66
2023-03-26T10:21:28.064Z,98179.66
2023-03-26T10:23:14.272Z,98176.31
2023-03-26T10:24:29.949Z,98162.97
2023-03-26T10:26:12.734Z,98166.94
2023-03-26T10:27:26.796Z,98180.59
2023-03-26T10:29:20.891Z,98168.22
2023-03-26T10:31:12.158Z,98167.25
2023-03-26T10:32:59.292Z,98159.25
2023-03-26T10:34:50.013Z,98152.75
2023-03-26T10:36:15.204Z,98162.13
2023-03-26T10:38:16.317Z,98152.44
2023-03-26T10:39:51.183Z,98151.38
2023-03-26T10:41:33.252Z,98149.41
2023-03-26T10:43:01.284Z,98152.22
2023-03-26T10:44:32.127Z,98162.75
2023-03-26T10:45:54.516Z,98151.94
2023-03-26T10:47:16.797Z,98153.91
2023-03-26T10:49:08.526Z,98155.47
2023-03-26T10:50:59.111Z,98159.38
2023-03-26T10:52:21.105Z,98158.06
2023-03-26T10:53:51.451Z,98160.13
2023-03-26T10:55:47.235Z,98143.44
2023-03-26T10:56:55.533Z,98142.81
2023-03-26T10:58:46.086Z,98146.16
2023-03-26T11:00:12.894Z,98138.97
2023-03-26T11:01:54.626Z,98138.59
2023-03-26T11:03:36.397Z,98153.31
2023-03-26T11:05:19.821Z,98143.09
2023-03-26T11:07:19.201Z,98150.13
2023-03-26T11:08:46.900Z,98142.97
2023-03-26T11:10:18.932Z,98144.09
2023-03-26T11:11:30.860Z,98141.06
2023-03-26T11:12:57.970Z,98142.44
2023-03-26T11:14:46.558Z,98137.75
2023-03-26T11:16:01.649Z,98137.09
2023-03-26T11:17:46.427Z,98129.09
2023-03-26T11:19:12.285Z,98136.09
2023-03-26T11:20:46.118Z,98140.97
2023-03-26T11:22:17.730Z,98135.84
2023-03-26T11:23:37.162Z,98127.88
2023-03-26T11:25:15.571Z,98115.72
2023-03-26T11:26:55.843Z,98133.09
2023-03-26T11:28:30.403Z,98120.56
2023-03-26T11:29:55.623Z,98120.59
2023-03-26T11:31:51.658Z,98125.47
2023-03-26T11:33:02.488Z,98128.50
2023-03-26T11:34:26.100Z,98117.28
2023-03-26T11:35:41.065Z,98123.97
2023-03-26T11:36:57.805Z,98114.22
2023-03-26T11:38:21.919Z,98129.56
2023-03-26T11:39:56.762Z,98128.72
2023-03-26T11:41:04.102Z,98129.16
2023-03-26T11:42:22.981Z,98117.31
2023-03-26T11:43:35.380Z,98123.63
2023-03-26T11:45:12.911Z,98118.16
2023-03-26T11:46:22.472Z,98126.81
2023-03-26T11:48:15.179Z,98126.16
2023-03-26T11:49:23.933Z,98115.78
2023-03-26T11:50:33.433Z,98115.47
2023-03-26T11:51:41.600Z,98126.16
2023-03-26T11:52:47.100Z,98124.31
2023-03-26T11:53:51.186Z,98117.78
2023-03-26T11:54:58.673Z,98117.31
2023-03-26T11:57:05.435Z,98114.16
2023-03-26T11:58:39.204Z,98114.97
2023-03-26T12:00:09.736Z,98111.69
2023-03-26T12:01:30.581Z,98100.66
2023-03-26T12:02:42.332Z,98108.38
2023-03-26T12:04:14.809Z,98100.03
2023-03-26T12:05:26.747Z,98110.88
2023-03-26T12:06:33.166Z,98109.06
2023-03-26T12:07:42.278Z,98101.91
2023-03-26T12:08:47.490Z,98108.03
2023-03-26T12:09:54.509Z,98110.56
2023-03-26T12:11:14.609Z,98104.19
2023-03-26T12:12:20.267Z,98105.88
2023-03-26T12:14:10.224Z,98100.81
2023-03-26T12:15:20.103Z,98098.19
2023-03-26T12:16:24.099Z,98096.22
2023-03-26T12:17:35.552Z,98095.88
2023-03-26T12:18:44.084Z,98098.41
2023-03-26T12:19:52.045Z,98100.13
2023-03-26T12:21:15.019Z,98099.31
2023-03-26T12:22:37.931Z,98099.31
2023-03-26T12:24:14.409Z,98095.28
2023-03-26T12:25:24.912Z,98108.50
2023-03-26T12:26:49.036Z,98097.97
2023-03-26T12:28:13.701Z,98100.66
2023-03-26T12:29:20.527Z,98095.63
2023-03-26T12:30:58.359Z,98093.97
2023-03-26T12:32:15.218Z,98086.25
2023-03-26T12:33:34.678Z,98092.97
2023-03-26T12:34:40.262Z,98088.63
2023-03-26T12:35:44.527Z,98089.59
2023-03-26T12:37:01.983Z,98094.47
2023-03-26T12:38:33.601Z,98081.28
2023-03-26T12:40:06.919Z,98082.28
2023-03-26T12:43:40.262Z,98079.63
2023-03-26T12:44:54.973Z,98075.78
2023-03-26T12:44:59.170Z,98077.13
2023-03-26T12:47:46.120Z,98074.81
2023-03-26T12:47:57.823Z,98064.28
2023-03-26T12:49:22.540Z,98068.47
2023-03-26T12:50:58.072Z,98069.81
2023-03-26T12:52:46.367Z,98065.63
2023-03-26T12:54:33.953Z,98053.28
2023-03-26T12:56:15.825Z,98058.94
2023-03-26T12:57:24.870Z,98062.13
2023-03-26T12:58:51.562Z,98067.66
2023-03-26T13:00:24.338Z,98054.59
2023-03-26T13:01:34.776Z,98053.09
2023-03-26T13:03:18.818Z,98038.41
2023-03-26T13:05:04.922Z,98031.41
2023-03-26T13:06:59.141Z,98053.94
2023-03-26T13:08:39.512Z,98047.28
2023-03-26T13:09:58.336Z,98036.41
2023-03-26T13:11:14.257Z,98045.75
2023-03-26T13:12:46.818Z,98054.09
2023-03-26T13:13:58.937Z,98035.69
2023-03-26T13:15:43.491Z,98039.91
2023-03-26T13:17:13.503Z,98032.19
2023-03-26T13:18:50.174Z,98025.19
2023-03-26T13:20:12.545Z,98026.00
2023-03-26T13:21:57.478Z,98028.19
2023-03-26T13:24:03.456Z,98022.84
2023-03-26T13:25:43.752Z,98023.50
2023-03-26T13:27:03.641Z,98021.84
2023-03-26T13:28:25.684Z,98014.50
2023-03-26T13:30:03.233Z,98005.63
2023-03-26T13:31:22.041Z,98004.81
2023-03-26T13:32:49.462Z,98012.81
2023-03-26T13:34:24.015Z,98008.00
2023-03-26T13:35:52.604Z,98004.50
2023-03-26T13:37:38.641Z,98009.16
2023-03-26T13:39:14.490Z,97992.28
2023-03-26T13:41:05.648Z,97998.44
2023-03-26T13:42:29.223Z,97996.78
2023-03-26T13:43:43.901Z,97995.28
2023-03-26T13:45:19.190Z,97990.13
2023-03-26T13:46:36.148Z,97996.00
2023-03-26T13:47:49.332Z,97984.59
2023-03-26T13:49:15.698Z,97986.63
2023-03-26T13:50:37.670Z,97988.47
2023-03-26T13:52:12.135Z,97983.78
2023-03-26T13:53:27.432Z,97989.81
2023-03-26T13:54:48.576Z,97989.97
2023-03-26T13:56:00.168Z,97980.44
2023-03-26T13:57:29.868Z,97982.09
2023-03-26T13:58:49.077Z,97980.78
2023-03-26T14:00:21.974Z,97969.06
2023-03-26T14:01:57.537Z,97979.41
2023-03-26T14:03:19.260Z,97979.41
2023-03-26T14:04:47.852Z,97972.94
2023-03-26T14:05:58.807Z,97978.41
2023-03-26T14:07:23.639Z,97972.75
2023-03-26T14:08:44.379Z,97981.44
2023-03-26T14:10:10.155Z,97980.28
2023-03-26T14:12:21.428Z,97972.75
2023-03-26T14:14:27.644Z,97978.41
2023-03-26T14:15:47.271Z,97971.75
2023-03-26T14:17:02.408Z,97975.56
2023-03-26T14:18:27.196Z,97979.25
2023-03-26T14:20:23.928Z,97965.03
2023-03-26T14:22:14.928Z,97979.06
2023-03-26T14:24:08.071Z,97983.25
2023-03-26T14:25:43.362Z,97968.06
2023-03-26T14:26:56.314Z,97974.41
2023-03-26T14:28:21.541Z,97972.41
2023-03-26T14:29:38.238Z,97979.91
2023-03-26T14:31:04.303Z,97973.06
2023-03-26T14:32:49.462Z,97966.41
2023-03-26T14:34:31.344Z,97984.94
2023-03-26T14:36:01.429Z,97978.59
2023-03-26T14:37:35.777Z,97973.06
2023-03-26T14:39:58.338Z,97981.09
2023-03-26T14:41:42.304Z,97978.06
2023-03-26T14:43:35.084Z,97980.91
2023-03-26T14:44:49.096Z,97976.06
2023-03-26T14:46:34.550Z,97982.41
2023-03-26T14:48:11.732Z,97978.53
2023-03-26T14:49:40.851Z,97979.56
2023-03-26T14:50:57.063Z,97979.38
2023-03-26T14:52:45.087Z,97981.56
2023-03-26T14:53:59.216Z,97980.03
2023-03-26T14:56:04.205Z,97980.38
2023-03-26T14:58:14.966Z,97985.53
2023-03-26T15:00:02.256Z,97979.06
2023-03-26T15:01:28.342Z,97982.19
2023-03-26T15:03:25.057Z,97984.53
2023-03-26T15:05:15.850Z,97972.69
2023-03-26T15:06:25.344Z,97971.03
2023-03-26T15:08:02.362Z,97981.19
2023-03-26T15:10:02.665Z,97978.19
2023-03-26T15:11:48.333Z,97981.88
2023-03-26T15:13:31.376Z,97971.88
2023-03-26T15:14:45.377Z,97973.72
2023-03-26T15:16:19.569Z,97975.38
2023-03-26T15:18:13.987Z,97971.03
2023-03-26T15:20:15.609Z,97968.50
2023-03-26T15:22:15.694Z,97969.69
2023-03-26T15:23:43.608Z,97968.84
2023-03-26T15:25:23.620Z,97965.84
2023-03-26T15:26:37.221Z,97963.03
2023-03-26T15:27:57.635Z,97962.16